sensor_id;sensor_type;location;lat;lon;timestamp;pressure;altitude;pressure_sealevel;temperature;humidity
19676;BME280;39539;52.202;9.876;2023-02-17T00:00:27;101044.94;;;7.19;100.00
19676;BME280;39539;52.202;9.876;2023-02-17T00:02:57;101050.84;;;7.22;100.00
19676;BME280;39539;52.202;9.876;2023-02-17T00:05:23;101045.22;;;7.25;100.00
19676;BME280;39539;52.202;9.876;2023-02-17T00:07:49;101036.22;;;7.34;100.00
19676;BME280;39539;52.202;9.876;2023-02-17T00:10:14;101034.56;;;7.33;100.00
19676;BME280;39539;52.202;9.876;2023-02-17T00:12:39;101034.88;;;7.38;100.00
19676;BME280;39539;52.202;9.876;2023-02-17T00:15:05;101025.66;;;7.34;100.00
19676;BME280;39539;52.202;9.876;2023-02-17T00:17:31;101023.06;;;7.26;100.00
19676;BME280;39539;52.202;9.876;2023-02-17T00:19:56;101010.66;;;7.26;100.00
19676;BME280;39539;52.202;9.876;2023-02-17T00:22:22;101011.13;;;7.30;100.00
19676;BME280;39539;52.202;9.876;2023-02-17T00:24:47;101008.53;;;7.22;100.00
19676;BME280;39539;52.202;9.876;2023-02-17T00:27:14;101014.06;;;7.35;100.00
19676;BME280;39539;52.202;9.876;2023-02-17T00:29:39;101013.41;;;7.33;100.00
19676;BME280;39539;52.202;9.876;2023-02-17T00:32:06;101015.38;;;7.39;100.00
19676;BME280;39539;52.202;9.876;2023-02-17T00:34:33;101014.66;;;7.45;100.00
19676;BME280;39539;52.202;9.876;2023-02-17T00:36:59;101014.97;;;7.50;100.00
19676;BME280;39539;52.202;9.876;2023-02-17T00:39:24;101002.47;;;7.36;100.00
19676;BME280;39539;52.202;9.876;2023-02-17T00:41:49;101008.44;;;7.38;100.00
19676;BME280;39539;52.202;9.876;2023-02-17T00:44:17;101005.25;;;7.42;100.00
19676;BME280;39539;52.202;9.876;2023-02-17T00:46:44;100998.97;;;7.43;100.00
19676;BME280;39539;52.202;9.876;2023-02-17T00:49:22;100997.84;;;7.38;100.00
19676;BME280;39539;52.202;9.876;2023-02-17T00:51:48;101001.78;;;7.42;100.00
19676;BME280;39539;52.202;9.876;2023-02-17T00:54:14;100984.16;;;7.34;100.00
19676;BME280;39539;52.202;9.876;2023-02-17T00:56:39;101006.44;;;7.40;100.00
19676;BME280;39539;52.202;9.876;2023-02-17T00:59:05;101002.31;;;7.37;100.00
19676;BME280;39539;52.202;9.876;2023-02-17T01:01:31;100996.88;;;7.39;100.00
19676;BME280;39539;52.202;9.876;2023-02-17T01:03:57;100995.50;;;7.43;100.00
19676;BME280;39539;52.202;9.876;2023-02-17T01:06:24;101006.44;;;7.40;100.00
19676;BME280;39539;52.202;9.876;2023-02-17T01:08:51;101004.44;;;7.42;100.00
19676;BME280;39539;52.202;9.876;2023-02-17T01:11:22;101005.34;;;7.49;100.00
19676;BME280;39539;52.202;9.876;2023-02-17T01:13:50;100992.78;;;7.51;100.00
19676;BME280;39539;52.202;9.876;2023-02-17T01:16:30;101005.94;;;7.59;100.00
19676;BME280;39539;52.202;9.876;2023-02-17T01:19:00;101005.28;;;7.57;100.00
19676;BME280;39539;52.202;9.876;2023-02-17T01:21:27;101002.75;;;7.64;100.00
19676;BME280;39539;52.202;9.876;2023-02-17T01:23:54;100998.47;;;7.63;100.00
19676;BME280;39539;52.202;9.876;2023-02-17T01:26:23;100996.63;;;7.63;100.00
19676;BME280;39539;52.202;9.876;2023-02-17T01:28:49;100999.13;;;7.65;100.00
19676;BME280;39539;52.202;9.876;2023-02-17T01:31:15;101001.19;;;7.70;100.00
19676;BME280;39539;52.202;9.876;2023-02-17T01:33:41;100997.56;;;7.71;100.00
19676;BME280;39539;52.202;9.876;2023-02-17T01:36:08;100996.19;;;7.75;100.00
19676;BME280;39539;52.202;9.876;2023-02-17T01:38:35;100979.50;;;7.74;100.00
19676;BME280;39539;52.202;9.876;2023-02-17T01:41:02;100976.88;;;7.74;100.00
19676;BME280;39539;52.202;9.876;2023-02-17T01:43:28;100974.94;;;7.83;100.00
19676;BME280;39539;52.202;9.876;2023-02-17T01:45:58;100971.66;;;7.81;100.00
19676;BME280;39539;52.202;9.876;2023-02-17T01:51:02;100959.44;;;7.80;100.00
19676;BME280;39539;52.202;9.876;2023-02-17T01:53:37;100955.78;;;7.81;100.00
19676;BME280;39539;52.202;9.876;2023-02-17T01:56:04;100944.84;;;7.84;100.00
19676;BME280;39539;52.202;9.876;2023-02-17T01:58:31;100941.56;;;7.82;100.00
19676;BME280;39539;52.202;9.876;2023-02-17T02:00:59;100927.31;;;7.83;100.00
19676;BME280;39539;52.202;9.876;2023-02-17T02:03:27;100916.72;;;7.83;100.00
19676;BME280;39539;52.202;9.876;2023-02-17T02:05:58;100920.03;;;7.85;100.00
19676;BME280;39539;52.202;9.876;2023-02-17T02:08:27;100923.66;;;7.84;100.00
19676;BME280;39539;52.202;9.876;2023-02-17T02:10:55;100907.78;;;7.84;100.00
19676;BME280;39539;52.202;9.876;2023-02-17T02:13:20;100907.06;;;7.90;100.00
19676;BME280;39539;52.202;9.876;2023-02-17T02:15:51;100903.84;;;7.95;100.00
19676;BME280;39539;52.202;9.876;2023-02-17T02:18:39;100909.63;;;7.98;100.00
19676;BME280;39539;52.202;9.876;2023-02-17T02:38:28;100899.72;;;8.22;100.00
19676;BME280;39539;52.202;9.876;2023-02-17T02:41:07;100898.91;;;8.21;100.00
19676;BME280;39539;52.202;9.876;2023-02-17T02:43:35;100900.09;;;8.19;100.00
19676;BME280;39539;52.202;9.876;2023-02-17T02:46:01;100907.78;;;8.14;100.00
19676;BME280;39539;52.202;9.876;2023-02-17T02:48:27;100906.59;;;8.16;100.00
19676;BME280;39539;52.202;9.876;2023-02-17T02:54:14;100901.38;;;8.23;100.00
19676;BME280;39539;52.202;9.876;2023-02-17T03:08:33;100871.31;;;8.30;100.00
19676;BME280;39539;52.202;9.876;2023-02-17T03:10:59;100873.75;;;8.32;100.00
19676;BME280;39539;52.202;9.876;2023-02-17T03:13:25;100873.97;;;8.30;100.00
19676;BME280;39539;52.202;9.876;2023-02-17T03:15:51;100854.97;;;8.27;100.00
19676;BME280;39539;52.202;9.876;2023-02-17T03:18:16;100871.38;;;8.37;100.00
19676;BME280;39539;52.202;9.876;2023-02-17T03:20:51;100861.78;;;8.36;100.00
19676;BME280;39539;52.202;9.876;2023-02-17T03:23:17;100874.69;;;8.39;100.00
19676;BME280;39539;52.202;9.876;2023-02-17T03:25:42;100858.00;;;8.39;100.00
19676;BME280;39539;52.202;9.876;2023-02-17T03:28:10;100852.84;;;8.37;100.00
19676;BME280;39539;52.202;9.876;2023-02-17T03:30:36;100845.81;;;8.44;100.00
19676;BME280;39539;52.202;9.876;2023-02-17T03:33:02;100855.66;;;8.50;100.00
19676;BME280;39539;52.202;9.876;2023-02-17T03:35:27;100847.66;;;8.44;100.00
19676;BME280;39539;52.202;9.876;2023-02-17T03:37:52;100863.59;;;8.50;100.00
19676;BME280;39539;52.202;9.876;2023-02-17T03:40:18;100865.06;;;8.53;100.00
19676;BME280;39539;52.202;9.876;2023-02-17T03:42:43;100864.00;;;8.47;100.00
19676;BME280;39539;52.202;9.876;2023-02-17T03:45:09;100865.44;;;8.50;100.00
19676;BME280;39539;52.202;9.876;2023-02-17T03:47:35;100856.78;;;8.41;100.00
19676;BME280;39539;52.202;9.876;2023-02-17T03:50:00;100869.06;;;8.49;100.00
19676;BME280;39539;52.202;9.876;2023-02-17T03:52:26;100864.16;;;8.46;100.00
19676;BME280;39539;52.202;9.876;2023-02-17T03:54:51;100858.47;;;8.49;100.00
19676;BME280;39539;52.202;9.876;2023-02-17T03:57:17;100858.56;;;8.56;100.00
19676;BME280;39539;52.202;9.876;2023-02-17T03:59:42;100847.50;;;8.52;100.00
19676;BME280;39539;52.202;9.876;2023-02-17T04:02:08;100835.34;;;8.58;100.00
19676;BME280;39539;52.202;9.876;2023-02-17T04:04:33;100828.78;;;8.53;100.00
19676;BME280;39539;52.202;9.876;2023-02-17T04:07:00;100823.50;;;8.53;100.00
19676;BME280;39539;52.202;9.876;2023-02-17T04:09:25;100837.00;;;8.59;100.00
19676;BME280;39539;52.202;9.876;2023-02-17T04:11:51;100841.28;;;8.60;100.00
19676;BME280;39539;52.202;9.876;2023-02-17T04:14:16;100849.66;;;8.63;100.00
19676;BME280;39539;52.202;9.876;2023-02-17T04:16:41;100831.69;;;8.59;100.00
19676;BME280;39539;52.202;9.876;2023-02-17T04:19:07;100832.94;;;8.63;100.00
19676;BME280;39539;52.202;9.876;2023-02-17T04:21:32;100831.31;;;8.62;100.00
19676;BME280;39539;52.202;9.876;2023-02-17T04:24:01;100838.13;;;8.71;100.00
19676;BME280;39539;52.202;9.876;2023-02-17T04:26:27;100817.31;;;8.68;100.00
19676;BME280;39539;52.202;9.876;2023-02-17T04:28:53;100819.19;;;8.74;100.00
19676;BME280;39539;52.202;9.876;2023-02-17T04:31:18;100823.28;;;8.76;100.00
19676;BME280;39539;52.202;9.876;2023-02-17T04:33:43;100833.25;;;8.74;100.00
19676;BME280;39539;52.202;9.876;2023-02-17T04:36:10;100828.66;;;8.83;100.00
19676;BME280;39539;52.202;9.876;2023-02-17T04:38:36;100839.63;;;8.80;100.00
19676;BME280;39539;52.202;9.876;2023-02-17T04:41:02;100836.16;;;8.80;100.00
19676;BME280;39539;52.202;9.876;2023-02-17T04:43:28;100845.16;;;8.85;100.00
19676;BME280;39539;52.202;9.876;2023-02-17T04:45:54;100856.41;;;8.87;100.00
19676;BME280;39539;52.202;9.876;2023-02-17T04:48:19;100842.94;;;8.89;100.00
19676;BME280;39539;52.202;9.876;2023-02-17T04:50:45;100834.31;;;8.80;100.00
19676;BME280;39539;52.202;9.876;2023-02-17T04:53:11;100836.84;;;8.88;100.00
19676;BME280;39539;52.202;9.876;2023-02-17T04:55:38;100825.38;;;8.81;100.00
19676;BME280;39539;52.202;9.876;2023-02-17T04:58:05;100812.94;;;8.82;100.00
19676;BME280;39539;52.202;9.876;2023-02-17T05:00:31;100806.19;;;8.79;100.00
19676;BME280;39539;52.202;9.876;2023-02-17T05:02:57;100815.09;;;8.71;100.00
19676;BME280;39539;52.202;9.876;2023-02-17T05:05:22;100814.91;;;8.73;100.00
19676;BME280;39539;52.202;9.876;2023-02-17T05:07:48;100813.06;;;8.73;100.00
19676;BME280;39539;52.202;9.876;2023-02-17T05:10:15;100813.88;;;8.74;100.00
19676;BME280;39539;52.202;9.876;2023-02-17T05:12:41;100810.25;;;8.75;100.00
19676;BME280;39539;52.202;9.876;2023-02-17T05:15:07;100810.03;;;8.76;100.00
19676;BME280;39539;52.202;9.876;2023-02-17T05:17:33;100808.84;;;8.79;100.00
19676;BME280;39539;52.202;9.876;2023-02-17T05:19:58;100803.75;;;8.77;100.00
19676;BME280;39539;52.202;9.876;2023-02-17T05:22:25;100801.28;;;8.76;100.00
19676;BME280;39539;52.202;9.876;2023-02-17T05:24:50;100797.00;;;8.75;100.00
19676;BME280;39539;52.202;9.876;2023-02-17T05:27:16;100784.97;;;8.79;100.00
19676;BME280;39539;52.202;9.876;2023-02-17T05:29:41;100780.94;;;8.83;100.00
19676;BME280;39539;52.202;9.876;2023-02-17T05:32:08;100774.41;;;8.86;100.00
19676;BME280;39539;52.202;9.876;2023-02-17T05:34:34;100768.16;;;8.93;100.00
19676;BME280;39539;52.202;9.876;2023-02-17T05:37:00;100769.59;;;8.96;100.00
19676;BME280;39539;52.202;9.876;2023-02-17T05:39:25;100750.00;;;8.90;100.00
19676;BME280;39539;52.202;9.876;2023-02-17T05:41:54;100748.41;;;8.96;100.00
19676;BME280;39539;52.202;9.876;2023-02-17T05:44:43;100758.72;;;9.12;100.00
19676;BME280;39539;52.202;9.876;2023-02-17T05:47:10;100752.59;;;9.12;100.00
19676;BME280;39539;52.202;9.876;2023-02-17T05:49:35;100754.69;;;9.23;100.00
19676;BME280;39539;52.202;9.876;2023-02-17T05:52:01;100735.03;;;9.11;100.00
19676;BME280;39539;52.202;9.876;2023-02-17T05:54:26;100740.00;;;9.20;100.00
19676;BME280;39539;52.202;9.876;2023-02-17T05:56:52;100748.59;;;9.29;100.00
19676;BME280;39539;52.202;9.876;2023-02-17T05:59:18;100742.47;;;9.29;100.00
19676;BME280;39539;52.202;9.876;2023-02-17T06:01:49;100740.47;;;9.37;100.00
19676;BME280;39539;52.202;9.876;2023-02-17T06:04:15;100744.56;;;9.40;100.00
19676;BME280;39539;52.202;9.876;2023-02-17T06:06:40;100737.03;;;9.43;100.00
19676;BME280;39539;52.202;9.876;2023-02-17T06:09:05;100734.38;;;9.43;100.00
19676;BME280;39539;52.202;9.876;2023-02-17T06:11:32;100719.69;;;9.41;100.00
19676;BME280;39539;52.202;9.876;2023-02-17T06:13:57;100719.84;;;9.39;100.00
19676;BME280;39539;52.202;9.876;2023-02-17T06:16:23;100702.94;;;9.40;100.00
19676;BME280;39539;52.202;9.876;2023-02-17T06:18:48;100708.09;;;9.49;100.00
19676;BME280;39539;52.202;9.876;2023-02-17T06:21:15;100718.28;;;9.52;100.00
19676;BME280;39539;52.202;9.876;2023-02-17T06:23:40;100735.03;;;9.59;100.00
19676;BME280;39539;52.202;9.876;2023-02-17T06:26:09;100727.09;;;9.59;100.00
19676;BME280;39539;52.202;9.876;2023-02-17T06:28:35;100723.44;;;9.60;100.00
19676;BME280;39539;52.202;9.876;2023-02-17T06:31:04;100717.69;;;9.56;100.00
19676;BME280;39539;52.202;9.876;2023-02-17T06:33:29;100731.81;;;9.63;100.00
19676;BME280;39539;52.202;9.876;2023-02-17T06:35:56;100733.84;;;9.68;100.00
19676;BME280;39539;52.202;9.876;2023-02-17T06:38:34;100720.97;;;9.65;100.00
19676;BME280;39539;52.202;9.876;2023-02-17T06:41:00;100720.38;;;9.63;100.00
19676;BME280;39539;52.202;9.876;2023-02-17T06:43:28;100703.03;;;9.67;100.00
19676;BME280;39539;52.202;9.876;2023-02-17T06:46:09;100698.34;;;9.69;100.00
19676;BME280;39539;52.202;9.876;2023-02-17T06:48:46;100686.69;;;9.70;100.00
19676;BME280;39539;52.202;9.876;2023-02-17T06:51:13;100671.59;;;9.71;100.00
19676;BME280;39539;52.202;9.876;2023-02-17T06:53:40;100677.72;;;9.71;100.00
19676;BME280;39539;52.202;9.876;2023-02-17T06:56:06;100675.25;;;9.70;100.00
19676;BME280;39539;52.202;9.876;2023-02-17T06:58:32;100671.59;;;9.71;100.00
19676;BME280;39539;52.202;9.876;2023-02-17T07:01:00;100673.66;;;9.75;100.00
19676;BME280;39539;52.202;9.876;2023-02-17T07:03:26;100674.09;;;9.85;100.00
19676;BME280;39539;52.202;9.876;2023-02-17T07:05:56;100676.13;;;9.83;100.00
19676;BME280;39539;52.202;9.876;2023-02-17T07:08:22;100662.63;;;9.78;100.00
19676;BME280;39539;52.202;9.876;2023-02-17T07:10:47;100672.66;;;9.83;100.00
19676;BME280;39539;52.202;9.876;2023-02-17T07:13:13;100685.47;;;9.79;100.00
19676;BME280;39539;52.202;9.876;2023-02-17T07:15:40;100692.66;;;9.85;100.00
19676;BME280;39539;52.202;9.876;2023-02-17T07:18:05;100695.91;;;9.87;100.00
19676;BME280;39539;52.202;9.876;2023-02-17T07:20:32;100693.06;;;9.82;100.00
19676;BME280;39539;52.202;9.876;2023-02-17T07:22:59;100679.19;;;9.87;100.00
19676;BME280;39539;52.202;9.876;2023-02-17T07:25:27;100676.94;;;9.90;100.00
19676;BME280;39539;52.202;9.876;2023-02-17T07:27:52;100664.69;;;9.89;100.00
19676;BME280;39539;52.202;9.876;2023-02-17T07:30:17;100658.97;;;9.93;100.00
19676;BME280;39539;52.202;9.876;2023-02-17T07:32:43;100669.63;;;9.99;100.00
19676;BME280;39539;52.202;9.876;2023-02-17T07:35:09;100687.97;;;10.01;100.00
19676;BME280;39539;52.202;9.876;2023-02-17T07:37:34;100665.94;;;9.94;100.00
19676;BME280;39539;52.202;9.876;2023-02-17T07:40:00;100663.88;;;9.96;100.00
19676;BME280;39539;52.202;9.876;2023-02-17T07:42:28;100631.59;;;9.99;100.00
19676;BME280;39539;52.202;9.876;2023-02-17T07:44:54;100631.59;;;9.99;100.00
19676;BME280;39539;52.202;9.876;2023-02-17T07:47:20;100624.06;;;10.02;100.00
19676;BME280;39539;52.202;9.876;2023-02-17T07:49:45;100604.63;;;10.02;100.00
19676;BME280;39539;52.202;9.876;2023-02-17T07:52:11;100616.91;;;10.09;100.00
19676;BME280;39539;52.202;9.876;2023-02-17T07:54:36;100577.28;;;9.95;100.00
19676;BME280;39539;52.202;9.876;2023-02-17T07:57:14;100586.47;;;10.05;100.00
19676;BME280;39539;52.202;9.876;2023-02-17T07:59:39;100605.66;;;10.21;100.00
19676;BME280;39539;52.202;9.876;2023-02-17T08:02:29;100605.88;;;10.19;100.00
19676;BME280;39539;52.202;9.876;2023-02-17T08:04:55;100591.16;;;10.17;100.00
19676;BME280;39539;52.202;9.876;2023-02-17T08:07:21;100581.13;;;10.19;100.00
19676;BME280;39539;52.202;9.876;2023-02-17T08:09:47;100573.78;;;10.21;100.00
19676;BME280;39539;52.202;9.876;2023-02-17T08:12:31;100593.81;;;10.30;100.00
19676;BME280;39539;52.202;9.876;2023-02-17T08:15:18;100581.94;;;10.26;100.00
19676;BME280;39539;52.202;9.876;2023-02-17T08:18:06;100576.81;;;10.24;100.00
19676;BME280;39539;52.202;9.876;2023-02-17T08:20:32;100589.50;;;10.36;100.00
19676;BME280;39539;52.202;9.876;2023-02-17T08:22:57;100606.28;;;10.43;100.00
19676;BME280;39539;52.202;9.876;2023-02-17T08:25:23;100596.44;;;10.50;100.00
19676;BME280;39539;52.202;9.876;2023-02-17T08:27:50;100568.28;;;10.29;100.00
19676;BME280;39539;52.202;9.876;2023-02-17T08:30:34;100587.47;;;10.38;100.00
19676;BME280;39539;52.202;9.876;2023-02-17T08:33:05;100592.75;;;10.44;100.00
19676;BME280;39539;52.202;9.876;2023-02-17T08:35:31;100589.09;;;10.45;100.00
19676;BME280;39539;52.202;9.876;2023-02-17T08:38:05;100582.16;;;10.38;100.00
19676;BME280;39539;52.202;9.876;2023-02-17T08:40:32;100577.84;;;10.43;100.00
19676;BME280;39539;52.202;9.876;2023-02-17T08:43:00;100579.28;;;10.46;100.00
19676;BME280;39539;52.202;9.876;2023-02-17T08:45:26;100570.69;;;10.44;100.00
19676;BME280;39539;52.202;9.876;2023-02-17T08:47:51;100562.91;;;10.49;100.00
19676;BME280;39539;52.202;9.876;2023-02-17T08:50:17;100551.44;;;10.55;100.00
19676;BME280;39539;52.202;9.876;2023-02-17T08:52:45;100555.50;;;10.64;100.00
19676;BME280;39539;52.202;9.876;2023-02-17T08:55:17;100563.09;;;10.67;100.00
19676;BME280;39539;52.202;9.876;2023-02-17T08:57:44;100548.16;;;10.60;100.00
19676;BME280;39539;52.202;9.876;2023-02-17T09:00:13;100553.06;;;10.63;100.00
19676;BME280;39539;52.202;9.876;2023-02-17T09:02:40;100540.63;;;10.56;100.00
19676;BME280;39539;52.202;9.876;2023-02-17T09:05:11;100537.09;;;10.69;100.00
19676;BME280;39539;52.202;9.876;2023-02-17T09:07:38;100549.94;;;10.72;100.00
19676;BME280;39539;52.202;9.876;2023-02-17T09:10:09;100541.97;;;10.72;100.00
19676;BME280;39539;52.202;9.876;2023-02-17T09:12:35;100538.13;;;10.68;100.00
19676;BME280;39539;52.202;9.876;2023-02-17T09:15:01;100519.13;;;10.58;100.00
19676;BME280;39539;52.202;9.876;2023-02-17T09:17:26;100525.44;;;10.70;100.00
19676;BME280;39539;52.202;9.876;2023-02-17T09:19:51;100527.25;;;10.76;100.00
19676;BME280;39539;52.202;9.876;2023-02-17T09:22:17;100514.16;;;10.82;100.00
19676;BME280;39539;52.202;9.876;2023-02-17T09:24:44;100519.03;;;10.85;100.00
19676;BME280;39539;52.202;9.876;2023-02-17T09:27:13;100515.53;;;10.91;100.00
19676;BME280;39539;52.202;9.876;2023-02-17T09:29:40;100508.09;;;10.99;100.00
19676;BME280;39539;52.202;9.876;2023-02-17T09:32:10;100523.84;;;11.01;100.00
19676;BME280;39539;52.202;9.876;2023-02-17T09:34:37;100530.00;;;10.95;100.00
19676;BME280;39539;52.202;9.876;2023-02-17T09:37:03;100535.75;;;10.92;100.00
19676;BME280;39539;52.202;9.876;2023-02-17T09:39:28;100543.91;;;10.97;100.00
19676;BME280;39539;52.202;9.876;2023-02-17T09:41:56;100527.16;;;10.96;100.00
19676;BME280;39539;52.202;9.876;2023-02-17T09:44:31;100522.84;;;10.95;100.00
19676;BME280;39539;52.202;9.876;2023-02-17T09:47:05;100541.00;;;11.05;100.00
19676;BME280;39539;52.202;9.876;2023-02-17T09:49:37;100516.28;;;10.98;100.00
19676;BME280;39539;52.202;9.876;2023-02-17T09:52:15;100528.72;;;11.11;100.00
19676;BME280;39539;52.202;9.876;2023-02-17T09:54:45;100556.56;;;11.08;100.00
19676;BME280;39539;52.202;9.876;2023-02-17T09:57:17;100536.06;;;11.09;100.00
19676;BME280;39539;52.202;9.876;2023-02-17T09:59:53;100530.00;;;10.95;100.00
19676;BME280;39539;52.202;9.876;2023-02-17T10:02:43;100531.25;;;10.92;100.00
19676;BME280;39539;52.202;9.876;2023-02-17T10:05:15;100548.25;;;10.91;100.00
19676;BME280;39539;52.202;9.876;2023-02-17T10:07:52;100549.72;;;10.81;100.00
19676;BME280;39539;52.202;9.876;2023-02-17T10:10:39;100544.38;;;10.87;100.00
19676;BME280;39539;52.202;9.876;2023-02-17T10:13:08;100534.94;;;10.91;100.00
19676;BME280;39539;52.202;9.876;2023-02-17T10:15:40;100539.22;;;10.92;100.00
19676;BME280;39539;52.202;9.876;2023-02-17T10:18:15;100543.13;;;10.90;100.00
19676;BME280;39539;52.202;9.876;2023-02-17T10:20:48;100539.94;;;10.74;100.00
19676;BME280;39539;52.202;9.876;2023-02-17T10:23:20;100552.19;;;10.75;100.00
19676;BME280;39539;52.202;9.876;2023-02-17T10:29:04;100532.75;;;10.82;100.00
19676;BME280;39539;52.202;9.876;2023-02-17T10:34:54;100535.97;;;10.90;100.00
19676;BME280;39539;52.202;9.876;2023-02-17T10:37:48;100506.50;;;10.92;100.00
19676;BME280;39539;52.202;9.876;2023-02-17T10:40:23;100504.22;;;11.02;100.00
19676;BME280;39539;52.202;9.876;2023-02-17T10:42:56;100516.47;;;11.03;100.00
19676;BME280;39539;52.202;9.876;2023-02-17T10:45:42;100528.22;;;11.20;100.00
19676;BME280;39539;52.202;9.876;2023-02-17T10:48:22;100513.75;;;11.16;100.00
19676;BME280;39539;52.202;9.876;2023-02-17T10:50:49;100490.56;;;11.23;100.00
19676;BME280;39539;52.202;9.876;2023-02-17T10:53:18;100501.75;;;11.32;100.00
19676;BME280;39539;52.202;9.876;2023-02-17T11:01:19;100476.38;;;11.55;100.00
19676;BME280;39539;52.202;9.876;2023-02-17T11:04:09;100465.53;;;11.56;100.00
19676;BME280;39539;52.202;9.876;2023-02-17T11:06:49;100477.63;;;11.77;100.00
19676;BME280;39539;52.202;9.876;2023-02-17T11:09:33;100456.75;;;11.99;100.00
19676;BME280;39539;52.202;9.876;2023-02-17T11:12:21;100462.75;;;12.13;100.00
19676;BME280;39539;52.202;9.876;2023-02-17T11:14:51;100429.88;;;12.19;100.00
19676;BME280;39539;52.202;9.876;2023-02-17T11:17:38;100434.41;;;12.19;100.00
19676;BME280;39539;52.202;9.876;2023-02-17T11:20:26;100424.50;;;12.26;100.00
19676;BME280;39539;52.202;9.876;2023-02-17T11:23:20;100424.75;;;12.36;100.00
19676;BME280;39539;52.202;9.876;2023-02-17T11:25:56;100431.44;;;12.27;100.00
19676;BME280;39539;52.202;9.876;2023-02-17T11:28:23;100423.75;;;12.37;100.00
19676;BME280;39539;52.202;9.876;2023-02-17T11:30:59;100424.59;;;12.49;100.00
19676;BME280;39539;52.202;9.876;2023-02-17T11:35:57;100393.19;;;12.51;100.00
19676;BME280;39539;52.202;9.876;2023-02-17T11:38:32;100404.53;;;12.47;100.00
19676;BME280;39539;52.202;9.876;2023-02-17T11:41:03;100392.19;;;12.64;100.00
19676;BME280;39539;52.202;9.876;2023-02-17T11:43:31;100405.06;;;12.67;100.00
19676;BME280;39539;52.202;9.876;2023-02-17T11:52:03;100405.97;;;12.91;100.00
19676;BME280;39539;52.202;9.876;2023-02-17T11:57:41;100364.06;;;12.80;100.00
19676;BME280;39539;52.202;9.876;2023-02-17T12:00:18;100373.34;;;12.89;100.00
19676;BME280;39539;52.202;9.876;2023-02-17T12:06:10;100369.28;;;12.98;100.00
19676;BME280;39539;52.202;9.876;2023-02-17T12:13:54;100353.31;;;13.22;100.00
19676;BME280;39539;52.202;9.876;2023-02-17T12:16:39;100329.16;;;12.93;100.00
19676;BME280;39539;52.202;9.876;2023-02-17T12:19:40;100349.00;;;12.97;100.00
19676;BME280;39539;52.202;9.876;2023-02-17T12:30:11;100324.44;;;13.31;98.89
19676;BME280;39539;52.202;9.876;2023-02-17T12:35:35;100306.44;;;13.38;98.69
19676;BME280;39539;52.202;9.876;2023-02-17T12:38:11;100328.72;;;13.43;97.38
19676;BME280;39539;52.202;9.876;2023-02-17T12:40:42;100335.94;;;13.31;99.13
19676;BME280;39539;52.202;9.876;2023-02-17T12:43:21;100356.94;;;13.39;98.10
19676;BME280;39539;52.202;9.876;2023-02-17T12:45:50;100373.78;;;13.40;97.01
19676;BME280;39539;52.202;9.876;2023-02-17T12:51:02;100368.63;;;13.15;97.12
19676;BME280;39539;52.202;9.876;2023-02-17T12:59:10;100387.66;;;12.65;100.00
19676;BME280;39539;52.202;9.876;2023-02-17T13:01:40;100382.19;;;12.59;100.00
19676;BME280;39539;52.202;9.876;2023-02-17T13:04:10;100382.41;;;12.46;100.00
19676;BME280;39539;52.202;9.876;2023-02-17T13:06:44;100401.00;;;12.34;100.00
19676;BME280;39539;52.202;9.876;2023-02-17T13:09:36;100393.81;;;12.35;100.00
19676;BME280;39539;52.202;9.876;2023-02-17T13:14:57;100398.06;;;12.24;100.00
19676;BME280;39539;52.202;9.876;2023-02-17T13:17:38;100389.84;;;12.26;100.00
19676;BME280;39539;52.202;9.876;2023-02-17T13:20:06;100391.22;;;12.28;100.00
19676;BME280;39539;52.202;9.876;2023-02-17T13:22:32;100379.19;;;12.26;100.00
19676;BME280;39539;52.202;9.876;2023-02-17T13:24:58;100387.19;;;12.26;100.00
19676;BME280;39539;52.202;9.876;2023-02-17T13:30:07;100400.88;;;12.29;100.00
19676;BME280;39539;52.202;9.876;2023-02-17T13:33:01;100416.72;;;12.24;100.00
19676;BME280;39539;52.202;9.876;2023-02-17T13:35:32;100415.91;;;12.24;100.00
19676;BME280;39539;52.202;9.876;2023-02-17T13:37:59;100397.31;;;12.17;100.00
19676;BME280;39539;52.202;9.876;2023-02-17T13:40:34;100427.47;;;12.18;100.00
19676;BME280;39539;52.202;9.876;2023-02-17T13:43:17;100417.66;;;12.11;100.00
19676;BME280;39539;52.202;9.876;2023-02-17T13:45:51;100427.31;;;12.12;100.00
19676;BME280;39539;52.202;9.876;2023-02-17T13:48:22;100461.13;;;12.12;100.00
19676;BME280;39539;52.202;9.876;2023-02-17T13:50:53;100463.72;;;12.00;100.00
19676;BME280;39539;52.202;9.876;2023-02-17T13:53:33;100479.84;;;11.87;100.00
19676;BME280;39539;52.202;9.876;2023-02-17T13:56:03;100460.22;;;11.75;100.00
19676;BME280;39539;52.202;9.876;2023-02-17T13:58:35;100475.91;;;11.64;100.00
19676;BME280;39539;52.202;9.876;2023-02-17T14:01:02;100464.66;;;11.62;100.00
19676;BME280;39539;52.202;9.876;2023-02-17T14:03:33;100484.19;;;11.75;100.00
19676;BME280;39539;52.202;9.876;2023-02-17T14:06:00;100485.25;;;11.74;100.00
19676;BME280;39539;52.202;9.876;2023-02-17T14:08:37;100494.84;;;11.75;100.00
19676;BME280;39539;52.202;9.876;2023-02-17T14:11:13;100487.16;;;11.66;100.00
19676;BME280;39539;52.202;9.876;2023-02-17T14:13:42;100482.84;;;11.65;100.00
19676;BME280;39539;52.202;9.876;2023-02-17T14:19:07;100489.38;;;11.69;100.00
19676;BME280;39539;52.202;9.876;2023-02-17T14:21:35;100487.25;;;11.78;100.00
19676;BME280;39539;52.202;9.876;2023-02-17T14:24:01;100493.59;;;11.77;100.00
19676;BME280;39539;52.202;9.876;2023-02-17T14:29:06;100506.09;;;11.77;100.00
19676;BME280;39539;52.202;9.876;2023-02-17T14:31:43;100520.63;;;11.56;100.00
19676;BME280;39539;52.202;9.876;2023-02-17T14:34:26;100523.63;;;11.41;100.00